createdAt,value
2022-10-03T00:01:26.458Z,60.75
2022-10-03T00:04:11.679Z,61.35
2022-10-03T00:06:52.057Z,61.69
2022-10-03T00:09:37.377Z,61.23
2022-10-03T00:12:15.759Z,61.67
2022-10-03T00:14:54.986Z,61.99
2022-10-03T00:17:28.971Z,62.31
2022-10-03T00:20:07.465Z,62.47
2022-10-03T00:22:43.416Z,62.63
2022-10-03T00:25:29.923Z,62.57
2022-10-03T00:28:13.935Z,62.65
2022-10-03T00:30:55.150Z,62.80
2022-10-03T00:33:33.932Z,63.09
2022-10-03T00:36:15.865Z,62.85
2022-10-03T00:39:03.832Z,62.86
2022-10-03T00:41:58.043Z,62.81
2022-10-03T00:45:02.468Z,63.05
2022-10-03T00:48:07.858Z,63.51
2022-10-03T00:51:06.751Z,63.64
2022-10-03T00:53:49.794Z,63.86
2022-10-03T00:56:37.153Z,63.79
2022-10-03T00:59:29.195Z,63.82
2022-10-03T01:01:58.831Z,64.17
2022-10-03T01:04:47.208Z,64.05
2022-10-03T01:07:33.318Z,64.03
2022-10-03T01:10:14.260Z,64.18
2022-10-03T01:12:59.987Z,64.33
2022-10-03T01:15:41.841Z,64.62
2022-10-03T01:18:23.202Z,65.01
2022-10-03T01:21:02.327Z,64.90
2022-10-03T01:24:01.153Z,64.92
2022-10-03T01:26:50.721Z,64.65
2022-10-03T01:29:44.550Z,65.09
2022-10-03T01:32:18.722Z,65.67
2022-10-03T01:34:54.357Z,65.70
2022-10-03T01:37:30.518Z,65.80
2022-10-03T01:40:09.868Z,65.80
2022-10-03T01:42:46.133Z,66.26
2022-10-03T01:45:27.711Z,65.60
2022-10-03T01:48:01.987Z,65.61
2022-10-03T01:50:36.620Z,65.27
2022-10-03T01:53:13.578Z,65.24
2022-10-03T01:55:51.050Z,64.58
2022-10-03T01:58:28.912Z,64.39
2022-10-03T02:01:08.643Z,64.10
2022-10-03T02:03:47.041Z,63.96
2022-10-03T02:06:25.607Z,63.58
2022-10-03T02:09:03.414Z,62.97
2022-10-03T02:11:39.413Z,62.62
2022-10-03T02:14:21.996Z,61.94
2022-10-03T02:17:00.719Z,61.46
2022-10-03T02:19:36.456Z,61.22
2022-10-03T02:22:15.340Z,61.16
2022-10-03T02:24:52.795Z,61.21
2022-10-03T02:28:04.147Z,60.96
2022-10-03T02:30:43.132Z,61.05
2022-10-03T02:33:52.013Z,61.03
2022-10-03T02:36:52.612Z,61.57
2022-10-03T02:40:00.564Z,61.28
2022-10-03T02:43:07.973Z,61.11
2022-10-03T02:46:16.365Z,60.82
2022-10-03T02:49:19.419Z,60.63
2022-10-03T02:52:11.013Z,60.33
2022-10-03T02:55:10.512Z,59.89
2022-10-03T02:58:12.320Z,59.64
2022-10-03T03:01:06.891Z,59.35
2022-10-03T03:04:12.074Z,59.56
2022-10-03T03:06:58.677Z,59.51
2022-10-03T03:10:07.781Z,59.75
2022-10-03T03:12:56.865Z,59.72
2022-10-03T03:15:56.147Z,59.39
2022-10-03T03:18:34.556Z,59.60
2022-10-03T03:21:25.132Z,59.63
2022-10-03T03:24:13.863Z,59.58
2022-10-03T03:26:59.340Z,59.43
2022-10-03T03:29:39.338Z,59.83
2022-10-03T03:32:19.110Z,60.21
2022-10-03T03:34:59.449Z,60.24
2022-10-03T03:37:35.980Z,60.13
2022-10-03T03:40:29.719Z,59.84
2022-10-03T03:43:19.031Z,59.92
2022-10-03T03:45:57.100Z,59.85
2022-10-03T03:48:44.132Z,59.56
2022-10-03T03:51:23.651Z,59.79
2022-10-03T03:54:12.436Z,59.60
2022-10-03T03:57:28.423Z,60.02
2022-10-03T04:00:13.271Z,60.26
2022-10-03T04:02:54.131Z,60.25
2022-10-03T04:05:35.095Z,60.46
2022-10-03T04:08:24.180Z,60.85
2022-10-03T04:11:03.623Z,60.90
2022-10-03T04:13:55.029Z,61.39
2022-10-03T04:17:01.046Z,61.56
2022-10-03T04:19:40.206Z,62.37
2022-10-03T04:22:25.975Z,62.62
2022-10-03T04:25:20.979Z,62.79
2022-10-03T04:28:13.952Z,62.90
2022-10-03T04:30:53.338Z,63.37
2022-10-03T04:33:40.227Z,63.64
2022-10-03T04:36:35.645Z,63.77
2022-10-03T04:39:11.988Z,63.74
2022-10-03T04:41:47.410Z,64.06
2022-10-03T04:44:35.051Z,64.13
2022-10-03T04:47:09.723Z,64.03
2022-10-03T04:49:46.977Z,64.18
2022-10-03T04:52:23.217Z,64.48
2022-10-03T04:55:05.223Z,64.55
2022-10-03T04:57:43.758Z,64.80
2022-10-03T05:00:24.754Z,64.89
2022-10-03T05:03:03.127Z,64.95
2022-10-03T05:05:52.821Z,65.33
2022-10-03T05:08:35.610Z,65.38
2022-10-03T05:11:19.024Z,65.56
2022-10-03T05:14:05.819Z,65.99
2022-10-03T05:16:42.537Z,65.73
2022-10-03T05:19:49.370Z,65.55
2022-10-03T05:22:32.943Z,65.86
2022-10-03T05:25:13.093Z,65.98
2022-10-03T05:27:51.984Z,66.06
2022-10-03T05:30:27.723Z,66.54
2022-10-03T05:33:08.386Z,66.86
2022-10-03T05:35:51.330Z,66.46
2022-10-03T05:38:37.343Z,66.42
2022-10-03T05:41:12.827Z,66.40
2022-10-03T05:43:58.372Z,65.74
2022-10-03T05:46:42.231Z,65.58
2022-10-03T05:49:29.091Z,65.60
2022-10-03T05:52:25.468Z,65.36
2022-10-03T05:55:13.498Z,65.01
2022-10-03T05:58:12.338Z,65.03
2022-10-03T06:01:04.862Z,65.48
2022-10-03T06:04:08.636Z,65.03
2022-10-03T06:06:52.359Z,65.47
2022-10-03T06:09:41.473Z,65.53
2022-10-03T06:12:15.942Z,65.43
2022-10-03T06:15:15.734Z,65.48
2022-10-03T06:17:59.500Z,66.11
2022-10-03T06:20:55.553Z,65.84
2022-10-03T06:23:53.169Z,65.64
2022-10-03T06:26:41.244Z,65.94
2022-10-03T06:29:37.067Z,66.02
2022-10-03T06:32:41.125Z,65.65
2022-10-03T06:35:42.467Z,65.10
2022-10-03T06:38:49.115Z,64.70
2022-10-03T06:41:55.211Z,64.57
2022-10-03T06:44:47.339Z,63.95
2022-10-03T06:47:31.614Z,64.20
2022-10-03T06:50:27.013Z,63.75
2022-10-03T06:53:16.289Z,63.89
2022-10-03T06:56:19.380Z,63.59
2022-10-03T06:59:12.682Z,63.24
2022-10-03T07:02:21.025Z,63.05
2022-10-03T07:05:15.542Z,62.58
2022-10-03T07:08:19.694Z,62.46
2022-10-03T07:11:18.550Z,62.35
2022-10-03T07:14:16.162Z,62.19
2022-10-03T07:17:11.009Z,62.16
2022-10-03T07:19:55.779Z,62.01
2022-10-03T07:22:46.058Z,61.44
2022-10-03T07:25:46.054Z,60.82
2022-10-03T07:28:52.964Z,60.58
2022-10-03T07:31:34.768Z,60.13
2022-10-03T07:34:33.910Z,59.97
2022-10-03T07:37:36.349Z,59.93
2022-10-03T07:40:36.761Z,59.66
2022-10-03T07:43:37.205Z,59.41
2022-10-03T07:46:38.025Z,59.21
2022-10-03T07:49:19.666Z,59.11
2022-10-03T07:52:09.860Z,59.04
2022-10-03T07:55:00.076Z,58.96
2022-10-03T07:57:41.355Z,59.42
2022-10-03T08:00:17.117Z,59.54
2022-10-03T08:03:40.560Z,59.51
2022-10-03T08:06:38.169Z,59.44
2022-10-03T08:09:46.207Z,59.26
2022-10-03T08:12:45.330Z,59.15
2022-10-03T08:15:26.510Z,59.00
2022-10-03T08:18:22.662Z,58.92
2022-10-03T08:20:55.417Z,58.75
2022-10-03T08:24:08.574Z,58.43
2022-10-03T08:26:56.345Z,58.47
2022-10-03T08:29:57.642Z,58.58
2022-10-03T08:32:48.893Z,58.59
2022-10-03T08:35:41.651Z,58.67
2022-10-03T08:38:42.366Z,58.38
2022-10-03T08:42:08.031Z,58.31
2022-10-03T08:45:02.012Z,57.79
2022-10-03T08:47:58.426Z,57.83
2022-10-03T08:50:57.557Z,57.83
2022-10-03T08:54:07.066Z,57.72
2022-10-03T08:56:52.813Z,57.82
2022-10-03T08:59:48.501Z,57.51
2022-10-03T09:03:20.210Z,57.44
2022-10-03T09:06:14.301Z,57.23
2022-10-03T09:08:58.305Z,57.08
2022-10-03T09:12:18.165Z,57.16
2022-10-03T09:15:13.627Z,57.33
2022-10-03T09:18:26.810Z,57.41
2022-10-03T09:21:37.037Z,56.95
2022-10-03T09:24:23.032Z,57.64
2022-10-03T09:27:31.642Z,57.78
2022-10-03T09:30:25.044Z,58.17
2022-10-03T09:33:30.673Z,58.70
2022-10-03T09:36:25.095Z,59.56
2022-10-03T09:39:06.893Z,59.82
2022-10-03T09:42:12.104Z,59.47
2022-10-03T09:45:08.691Z,59.17
2022-10-03T09:48:05.931Z,59.21
2022-10-03T09:51:16.395Z,58.19
2022-10-03T09:54:23.862Z,57.42
2022-10-03T09:57:10.236Z,56.94
2022-10-03T09:59:55.510Z,56.78
2022-10-03T10:02:46.710Z,57.23
2022-10-03T10:05:35.091Z,56.50
2022-10-03T10:08:45.265Z,55.76
2022-10-03T10:11:26.391Z,54.79
2022-10-03T10:14:31.038Z,54.10
2022-10-03T10:17:33.858Z,54.30
2022-10-03T10:20:21.662Z,54.50
2022-10-03T10:23:15.589Z,54.76
2022-10-03T10:26:11.637Z,54.79
2022-10-03T10:29:17.280Z,54.44
2022-10-03T10:32:30.806Z,54.32
2022-10-03T10:35:29.264Z,54.17
2022-10-03T10:38:26.171Z,53.61
2022-10-03T10:41:30.333Z,52.96
2022-10-03T10:44:46.618Z,53.29
2022-10-03T10:47:43.935Z,53.14
2022-10-03T10:50:50.777Z,54.19
2022-10-03T10:54:09.834Z,53.42
2022-10-03T10:57:03.289Z,53.34
2022-10-03T11:00:08.002Z,53.66
2022-10-03T11:03:09.479Z,51.83
2022-10-03T11:06:11.625Z,50.64
2022-10-03T11:09:10.152Z,51.94
2022-10-03T11:12:14.752Z,48.71
2022-10-03T11:15:35.823Z,48.27
2022-10-03T11:18:42.768Z,48.64
2022-10-03T11:21:41.947Z,48.46
2022-10-03T11:24:41.258Z,49.21
2022-10-03T11:27:45.585Z,49.16
2022-10-03T11:30:56.745Z,48.14
2022-10-03T11:33:57.290Z,48.02
2022-10-03T11:36:58.468Z,48.64
2022-10-03T11:39:42.089Z,46.71
2022-10-03T11:42:25.481Z,46.94
2022-10-03T11:44:59.374Z,46.38
2022-10-03T11:47:56.255Z,45.83
2022-10-03T11:50:32.064Z,47.12
2022-10-03T11:53:16.093Z,46.99
2022-10-03T11:55:52.758Z,46.25
2022-10-03T11:58:46.261Z,45.57
2022-10-03T12:01:26.084Z,45.15
2022-10-03T12:04:04.638Z,44.55
2022-10-03T12:07:17.614Z,44.38
2022-10-03T12:10:04.101Z,44.71
2022-10-03T12:12:42.389Z,45.06
2022-10-03T12:15:36.661Z,44.35
2022-10-03T12:18:11.067Z,44.78
2022-10-03T12:21:01.199Z,43.78
2022-10-03T12:23:45.385Z,43.12
2022-10-03T12:26:19.276Z,42.70
2022-10-03T12:28:55.431Z,41.44
2022-10-03T12:31:30.420Z,42.25
2022-10-03T12:34:09.448Z,42.56
2022-10-03T12:36:49.361Z,43.01
2022-10-03T12:39:31.611Z,41.83
2022-10-03T12:42:20.889Z,41.97
2022-10-03T12:44:57.400Z,41.95
2022-10-03T12:47:54.163Z,41.99
2022-10-03T12:50:39.087Z,41.03
2022-10-03T12:53:25.338Z,41.84
2022-10-03T12:56:18.937Z,41.68
2022-10-03T12:58:59.293Z,42.44
2022-10-03T13:01:49.414Z,41.81
2022-10-03T13:04:31.106Z,41.63
2022-10-03T13:07:16.352Z,42.08
2022-10-03T13:10:12.634Z,41.96
2022-10-03T13:12:47.313Z,40.78
2022-10-03T13:15:52.747Z,40.02
2022-10-03T13:18:43.992Z,40.03
2022-10-03T13:21:44.381Z,40.63
2022-10-03T13:24:13.540Z,41.07
2022-10-03T13:26:53.668Z,40.28
2022-10-03T13:29:30.147Z,40.71
2022-10-03T13:32:12.217Z,39.33
2022-10-03T13:34:59.028Z,39.91
2022-10-03T13:37:34.080Z,39.94
2022-10-03T13:40:09.264Z,39.64
2022-10-03T13:42:45.333Z,39.35
2022-10-03T13:45:19.326Z,39.63
2022-10-03T13:47:53.980Z,39.98
2022-10-03T13:50:31.304Z,40.13
2022-10-03T13:53:06.040Z,40.33
2022-10-03T13:55:47.894Z,40.46
2022-10-03T13:58:32.965Z,40.79
2022-10-03T14:01:15.426Z,40.88
2022-10-03T14:03:56.125Z,41.11
2022-10-03T14:06:37.791Z,41.29
2022-10-03T14:09:38.697Z,39.90
2022-10-03T14:12:28.229Z,40.52
2022-10-03T14:15:19.331Z,40.61
2022-10-03T14:17:54.656Z,41.67
2022-10-03T14:20:30.447Z,40.96
2022-10-03T14:23:14.252Z,40.66
2022-10-03T14:25:48.872Z,40.68
2022-10-03T14:28:26.733Z,40.65
2022-10-03T14:31:07.358Z,40.54
2022-10-03T14:33:44.898Z,41.00
2022-10-03T14:36:31.413Z,41.06
2022-10-03T14:39:22.124Z,41.38
2022-10-03T14:42:24.031Z,41.46
2022-10-03T14:44:57.244Z,40.52
2022-10-03T14:47:27.234Z,40.99
2022-10-03T14:50:00.130Z,41.13
2022-10-03T14:52:38.107Z,40.72
2022-10-03T14:55:15.752Z,41.54
2022-10-03T14:58:09.442Z,41.26
2022-10-03T15:00:43.914Z,40.92
2022-10-03T15:03:24.957Z,41.10
2022-10-03T15:06:01.844Z,41.73
2022-10-03T15:08:37.860Z,42.14
2022-10-03T15:11:10.267Z,41.28
2022-10-03T15:13:44.568Z,40.42
2022-10-03T15:16:18.348Z,40.56
2022-10-03T15:18:54.004Z,40.79
2022-10-03T15:21:23.214Z,40.98
2022-10-03T15:23:57.266Z,41.25
2022-10-03T15:26:31.486Z,40.69
2022-10-03T15:29:03.842Z,40.40
2022-10-03T15:31:36.533Z,40.33
2022-10-03T15:34:08.602Z,40.55
2022-10-03T15:36:40.377Z,40.63
2022-10-03T15:39:20.027Z,40.15
2022-10-03T15:42:04.631Z,40.33
2022-10-03T15:44:39.544Z,40.29
2022-10-03T15:47:14.126Z,40.72
2022-10-03T15:49:50.305Z,41.32
2022-10-03T15:52:23.169Z,40.92
2022-10-03T15:55:03.137Z,40.51
2022-10-03T15:57:46.609Z,40.50
2022-10-03T16:00:27.866Z,40.94
2022-10-03T16:03:07.478Z,41.26
2022-10-03T16:05:37.423Z,41.08
2022-10-03T16:08:10.855Z,40.99
2022-10-03T16:10:42.452Z,40.90
2022-10-03T16:13:28.535Z,41.11
2022-10-03T16:16:11.450Z,41.47
2022-10-03T16:18:54.965Z,42.08
2022-10-03T16:21:47.452Z,41.45
2022-10-03T16:24:29.882Z,42.22
2022-10-03T16:27:07.308Z,41.70
2022-10-03T16:29:39.851Z,42.23
2022-10-03T16:32:11.152Z,42.25
2022-10-03T16:34:45.754Z,42.24
2022-10-03T16:37:20.962Z,42.46
2022-10-03T16:39:55.854Z,42.80
2022-10-03T16:42:29.046Z,43.42
2022-10-03T16:45:02.155Z,43.70
2022-10-03T16:47:35.546Z,44.54
2022-10-03T16:50:23.119Z,45.16
2022-10-03T16:52:54.315Z,45.49
2022-10-03T16:55:28.484Z,46.16
2022-10-03T16:57:59.348Z,46.40
2022-10-03T17:00:36.165Z,46.34
2022-10-03T17:03:14.108Z,46.77
2022-10-03T17:05:47.322Z,46.28
2022-10-03T17:08:40.639Z,46.80
2022-10-03T17:11:09.549Z,46.76
2022-10-03T17:13:44.032Z,47.16
2022-10-03T17:16:21.877Z,47.72
2022-10-03T17:19:17.158Z,47.34
2022-10-03T17:21:54.008Z,47.99
2022-10-03T17:24:32.720Z,48.50
2022-10-03T17:27:07.426Z,48.86
2022-10-03T17:29:42.177Z,49.26
2022-10-03T17:32:21.513Z,49.52
2022-10-03T17:34:58.680Z,49.44
2022-10-03T17:38:19.637Z,49.44
2022-10-03T17:41:04.487Z,50.41
2022-10-03T17:43:41.266Z,50.69
2022-10-03T17:46:19.069Z,51.16
2022-10-03T17:48:56.308Z,51.53
2022-10-03T17:51:34.489Z,51.85
2022-10-03T17:54:07.318Z,51.79
2022-10-03T17:56:36.590Z,52.00
2022-10-03T17:59:13.975Z,52.17
2022-10-03T18:01:46.046Z,52.50
2022-10-03T18:04:20.321Z,52.82
2022-10-03T18:06:50.836Z,53.64
2022-10-03T18:09:29.783Z,54.28
2022-10-03T18:12:12.187Z,54.88
2022-10-03T18:14:54.041Z,55.40
2022-10-03T18:17:30.763Z,55.70
2022-10-03T18:20:21.270Z,56.11
2022-10-03T18:22:56.767Z,56.83
2022-10-03T18:26:15.015Z,57.15
2022-10-03T18:28:45.885Z,57.45
2022-10-03T18:31:18.960Z,57.41
2022-10-03T18:33:51.924Z,57.72
2022-10-03T18:36:25.024Z,57.39
2022-10-03T18:38:58.623Z,57.07
2022-10-03T18:41:27.488Z,57.25
2022-10-03T18:43:59.866Z,57.31
2022-10-03T18:46:33.485Z,57.49
2022-10-03T18:49:31.830Z,57.57
2022-10-03T18:52:04.480Z,58.06
2022-10-03T18:54:43.226Z,58.24
2022-10-03T18:57:20.193Z,56.88
2022-10-03T18:59:56.137Z,57.83
2022-10-03T19:02:31.991Z,58.18
2022-10-03T19:05:11.135Z,57.97
2022-10-03T19:07:50.240Z,57.80
2022-10-03T19:10:40.788Z,57.44
2022-10-03T19:13:19.662Z,57.48
2022-10-03T19:16:05.290Z,57.58
2022-10-03T19:18:42.954Z,58.04
2022-10-03T19:21:18.867Z,58.39
2022-10-03T19:23:54.341Z,58.55
2022-10-03T19:26:27.478Z,58.75
2022-10-03T19:28:59.864Z,58.79
2022-10-03T19:31:32.999Z,58.82
2022-10-03T19:34:08.951Z,58.42
2022-10-03T19:36:41.102Z,58.10
2022-10-03T19:39:14.874Z,58.06
2022-10-03T19:41:52.910Z,58.21
2022-10-03T19:44:24.779Z,58.20
2022-10-03T19:47:14.130Z,58.09
2022-10-03T19:49:57.667Z,58.00
2022-10-03T19:52:29.711Z,58.22
2022-10-03T19:55:13.107Z,58.24
2022-10-03T19:57:44.748Z,58.12
2022-10-03T20:00:26.953Z,58.08
2022-10-03T20:02:58.831Z,58.16
2022-10-03T20:05:34.099Z,58.13
2022-10-03T20:08:08.968Z,58.37
2022-10-03T20:10:52.241Z,58.04
2022-10-03T20:13:20.838Z,58.90
2022-10-03T20:15:52.426Z,59.16
2022-10-03T20:18:26.370Z,59.70
2022-10-03T20:20:57.290Z,59.82
2022-10-03T20:23:28.478Z,60.16
2022-10-03T20:26:03.204Z,59.95
2022-10-03T20:28:49.826Z,60.02
2022-10-03T20:31:23.007Z,60.45
2022-10-03T20:33:53.383Z,60.67
2022-10-03T20:36:25.092Z,61.15
2022-10-03T20:39:05.602Z,60.64
2022-10-03T20:41:48.862Z,60.57
2022-10-03T20:44:27.919Z,60.71
2022-10-03T20:47:03.587Z,60.56
2022-10-03T20:49:33.758Z,60.78
2022-10-03T20:52:04.985Z,60.69
2022-10-03T20:54:37.832Z,60.75
2022-10-03T20:57:17.337Z,60.51
2022-10-03T20:59:50.703Z,60.62
2022-10-03T21:02:29.458Z,60.51
2022-10-03T21:05:02.350Z,60.92
2022-10-03T21:07:38.935Z,60.78
2022-10-03T21:10:19.621Z,61.08
2022-10-03T21:12:53.562Z,61.13
2022-10-03T21:15:30.831Z,61.28
2022-10-03T21:17:59.903Z,61.44
2022-10-03T21:20:35.907Z,61.62
2022-10-03T21:23:08.096Z,61.86
2022-10-03T21:25:39.364Z,62.12
2022-10-03T21:28:24.657Z,61.97
2022-10-03T21:31:16.096Z,61.97
2022-10-03T21:33:52.878Z,61.89
2022-10-03T21:36:28.355Z,62.06
2022-10-03T21:39:12.589Z,62.16
2022-10-03T21:41:52.443Z,62.49
2022-10-03T21:44:39.130Z,62.66
2022-10-03T21:47:17.683Z,62.99
2022-10-03T21:49:55.550Z,62.84
2022-10-03T21:52:56.520Z,62.53
2022-10-03T21:55:53.148Z,62.71
2022-10-03T21:58:34.279Z,63.08
2022-10-03T22:01:14.046Z,62.93
2022-10-03T22:03:51.672Z,62.87
2022-10-03T22:06:24.778Z,63.02
2022-10-03T22:08:55.561Z,63.14
2022-10-03T22:11:36.095Z,63.00
2022-10-03T22:14:16.115Z,62.99
2022-10-03T22:16:56.832Z,63.21
2022-10-03T22:19:34.733Z,62.87
2022-10-03T22:22:20.538Z,63.03
2022-10-03T22:25:00.317Z,63.29
2022-10-03T22:27:35.045Z,63.32
2022-10-03T22:30:06.429Z,63.63
2022-10-03T22:32:41.898Z,63.66
2022-10-03T22:35:25.943Z,63.77
2022-10-03T22:37:55.745Z,63.65
2022-10-03T22:40:25.322Z,63.59
2022-10-03T22:42:58.398Z,63.78
2022-10-03T22:45:29.522Z,63.92
2022-10-03T22:48:02.204Z,63.71
2022-10-03T22:50:33.898Z,63.78
2022-10-03T22:53:04.839Z,64.07
2022-10-03T22:55:34.544Z,64.17
2022-10-03T22:58:06.155Z,64.40
2022-10-03T23:00:35.941Z,64.74
2022-10-03T23:03:11.186Z,64.62
2022-10-03T23:06:11.695Z,64.40
2022-10-03T23:08:54.797Z,64.58
2022-10-03T23:11:26.347Z,64.83
2022-10-03T23:13:57.939Z,64.77
2022-10-03T23:16:48.668Z,64.92
2022-10-03T23:19:27.808Z,65.12
2022-10-03T23:21:59.496Z,65.42
2022-10-03T23:24:33.294Z,65.38
2022-10-03T23:27:40.234Z,65.30
2022-10-03T23:30:55.211Z,65.27
2022-10-03T23:33:50.383Z,65.51
2022-10-03T23:36:24.024Z,65.45
2022-10-03T23:38:58.905Z,65.33
2022-10-03T23:41:44.480Z,65.32
2022-10-03T23:44:31.411Z,65.32
2022-10-03T23:47:02.713Z,65.31
2022-10-03T23:49:31.111Z,65.17
2022-10-03T23:52:00.971Z,65.12
2022-10-03T23:54:29.755Z,65.07
2022-10-03T23:57:07.205Z,64.83
2022-10-03T23:59:38.538Z,64.78
